ADDS METAR Data INFO
IDs: Format: Raw Decoded Include TAF

Data at: 1342 UTC 21 Nov 2017

KCRS 211253Z AUTO 16008KT 5SM BR CLR 09/09 A2991 RMK AO2 SLP128 T00940089
KCRS 211153Z AUTO 15008KT 7SM CLR 09/09 A2990 RMK AO2 SLP123 T00940089 10106 20083 55015
KCRS 211053Z AUTO 16007KT 7SM CLR 09/08 A2989 RMK AO2 SLP122 T00890083
KCRS 210953Z AUTO 16007KT 10SM CLR 08/08 A2992 RMK AO2 SLP129 T00830078
KCRS 210853Z AUTO 16006KT 10SM CLR 09/08 A2994 RMK AO2 SLP138 T00890078 56011
KCRS 210753Z AUTO 16007KT 10SM CLR 09/08 A2994 RMK AO2 SLP138 T00940078
KCRS 210653Z AUTO 17006KT 10SM CLR 09/07 A2996 RMK AO2 SLP144 T00940072
KCRS 210553Z AUTO 16008KT 10SM CLR 11/07 A2997 RMK AO2 SLP149 T01060072 10139 20100 401830039 58008
KCRS 210453Z AUTO 17008KT 10SM CLR 11/07 A2999 RMK AO2 SLP155 T01110067
KCRS 210353Z AUTO 16007KT 10SM CLR 10/06 A3001 RMK AO2 SLP161 T01000056
KCRS 210253Z AUTO 16007KT 10SM CLR 11/05 A3000 RMK AO2 SLP158 T01060050 58009
KCRS 210153Z AUTO 15006KT 10SM CLR 11/04 A3001 RMK AO2 SLP163 T01110039
KCRS 210053Z AUTO 16004KT 10SM CLR 13/02 A3003 RMK AO2 SLP168 T01280017
KCRS 202353Z AUTO 16003KT 10SM CLR 14/01 A3003 RMK AO2 SLP167 T01390006 10183 20133 56010
KCRS 202253Z AUTO 17008KT 10SM CLR 16/00 A3003 RMK AO2 SLP169 T01610000
KCRS 202153Z AUTO 16014KT 10SM CLR 18/M01 A3004 RMK AO2 SLP170 T01781006
KCRS 202053Z AUTO 18012KT 10SM CLR 18/00 A3005 RMK AO2 SLP176 T01830000 56039
KCRS 201953Z AUTO 17013G20KT 10SM CLR 18/M01 A3007 RMK AO2 SLP182 T01781006
KCRS 201853Z AUTO 17012KT 10SM CLR 17/M01 A3011 RMK AO2 SLP196 T01721006
KCRS 201753Z AUTO 19011G17KT 10SM CLR 17/M01 A3017 RMK AO2 SLP216 T01671006 10167 20039 58025
KCRS 201653Z AUTO 17012KT 10SM CLR 16/01 A3021 RMK AO2 SLP229 T01560006
KCRS 201553Z AUTO 17009KT 10SM CLR 13/02 A3023 RMK AO2 SLP238 T01330017 TSNO
KCRS 201453Z AUTO 18006KT 3SM HZ CLR 09/03 A3025 RMK AO2 SLP242 T00940028 53015 TSNO
KCRS 201436Z AUTO 21003KT 2SM HZ CLR 08/03 A3024 RMK AO2 T00830033 TSNO
KCRS 201353Z AUTO 16004KT 10SM CLR 06/01 A3023 RMK AO2 SLP236 T00610011 TSNO
KCRS 201253Z AUTO 16004KT 10SM CLR 05/01 A3021 RMK AO2 SLP232 T00500006 TSNO $
KCRS 201153Z AUTO 16006KT 10SM CLR 04/01 A3020 RMK AO2 SLP227 T00390006 10072 20039 58005 TSNO $
KCRS 201053Z AUTO 16004KT 10SM CLR 04/01 A3020 RMK AO2 SLP227 T00440011 TSNO $
KCRS 200953Z AUTO 18004KT 3SM HZ CLR 04/00 A3022 RMK AO2 SLP233 T00390000 TSNO $
KCRS 200853Z AUTO 17004KT 10SM CLR 06/01 A3022 RMK AO2 SLP231 T00560006 58011 TSNO $
KCRS 200753Z AUTO 17003KT 8SM CLR 06/01 A3023 RMK AO2 SLP235 T00610006 TSNO $
KCRS 200653Z AUTO 16003KT 10SM CLR 07/00 A3024 RMK AO2 SLP239 T00670000 TSNO $
KCRS 200553Z AUTO 00000KT 10SM CLR 06/00 A3025 RMK AO2 SLP242 T00610000 10128 20056 401720050 58003 TSNO $
KCRS 200453Z AUTO 00000KT 10SM CLR 06/01 A3026 RMK AO2 SLP246 T00610011 TSNO $
KCRS 200353Z AUTO 00000KT 10SM CLR 07/M01 A3026 RMK AO2 SLP247 T00721006 TSNO $
KCRS 200253Z AUTO 00000KT 10SM CLR 08/00 A3026 RMK AO2 SLP247 T00780000 52003 TSNO $
KCRS 200153Z AUTO 00000KT 10SM CLR 09/M01 A3025 RMK AO2 SLP245 T00941006 TSNO $